Time;durP1;ratioP1;P1;durP2;ratioP2;P2;SDS_P1;SDS_P2;PMS_P1;PMS_P2;Temp;Humidity;BMP_temperature;BMP_pressure;BME280_temperature;BME280_humidity;BME280_pressure;Samples;Min_cycle;Max_cycle;Signal;HPM_P1;HPM_P2
2022/08/23 00:00:38;;;;;;;;;;;;;;;18.85;70.68;101375.44;2055956;28;30148;-68
2022/08/23 00:01:43;;;;;;;8.77;1.60;;;;;;;18.85;70.71;101380.84;2063432;28;19996;-68
2022/08/23 00:02:45;;;;;;;5.72;1.60;;;;;;;18.89;70.24;101374.31;2062077;28;31061;-68
2022/08/23 00:03:48;;;;;;;3.20;1.58;;;;;;;18.88;70.02;101375.28;2055091;28;27202;-68
2022/08/23 00:04:51;;;;;;;4.45;1.30;;;;;;;18.89;70.10;101376.16;2054899;28;38972;-69
2022/08/23 00:05:53;;;;;;;3.78;1.48;;;;;;;18.89;69.87;101376.16;2055192;28;34083;-68
2022/08/23 00:06:57;;;;;;;4.20;1.55;;;;;;;18.89;70.23;101373.44;2055423;28;20174;-68
2022/08/23 00:08:01;;;;;;;3.95;1.35;;;;;;;18.89;70.10;101373.44;2055661;28;20105;-68
2022/08/23 00:09:05;;;;;;;6.05;1.70;;;;;;;18.92;69.37;101378.72;2055477;28;23974;-68
2022/08/23 00:10:11;;;;;;;4.47;1.35;;;;;;;18.93;69.17;101374.16;2055248;28;20051;-68
2022/08/23 00:11:33;;;;;;;4.63;1.48;;;;;;;18.93;68.81;101374.16;2054943;28;33022;-68
2022/08/23 00:12:38;;;;;;;4.88;1.45;;;;;;;18.93;69.49;101372.31;2055795;28;20043;-69
2022/08/23 00:13:40;;;;;;;4.95;1.65;;;;;;;18.92;69.53;101373.28;2054162;28;30044;-68
2022/08/23 00:14:53;;;;;;;6.35;1.40;;;;;;;18.89;69.37;101368.88;2056087;28;35236;-68
2022/08/23 00:15:55;;;;;;;4.65;1.52;;;;;;;18.91;69.13;101368.81;2054855;28;29102;-58
2022/08/23 00:16:58;;;;;;;3.65;1.33;;;;;;;18.93;69.08;101374.16;2055044;28;25818;-58
2022/08/23 00:18:02;;;;;;;4.60;1.75;;;;;;;18.92;69.25;101370.59;2054957;28;20082;-64
2022/08/23 00:19:06;;;;;;;3.83;1.20;;;;;;;18.91;69.33;101376.09;2054778;28;27885;-64
2022/08/23 00:20:13;;;;;;;3.08;1.30;;;;;;;18.88;68.91;101374.41;2055343;28;30535;-66
2022/08/23 00:21:17;;;;;;;4.47;1.27;;;;;;;18.89;69.20;101370.72;2055858;28;24688;-58
2022/08/23 00:22:19;;;;;;;7.82;1.58;;;;;;;18.87;68.27;101373.50;2054829;28;30432;-58
2022/08/23 00:23:20;;;;;;;3.35;1.52;;;;;;;18.89;68.48;101373.44;2054833;28;22461;-60
2022/08/23 00:24:24;;;;;;;5.18;1.30;;;;;;;18.89;68.27;101377.03;2054597;28;29909;-62
2022/08/23 00:25:27;;;;;;;5.90;1.52;;;;;;;18.89;68.26;101377.03;2056231;28;20936;-64
2022/08/23 00:26:52;;;;;;;3.85;1.38;;;;;;;18.91;68.23;101374.25;2055681;28;25092;-58
2022/08/23 00:27:54;;;;;;;4.35;1.60;;;;;;;18.91;68.00;101373.38;2055341;28;28948;-61
2022/08/23 00:28:58;;;;;;;3.45;1.40;;;;;;;18.88;67.76;101374.41;2055953;28;20040;-60
2022/08/23 00:30:02;;;;;;;7.18;1.35;;;;;;;18.88;68.05;101371.69;2055639;28;23739;-68
2022/08/23 00:31:06;;;;;;;2.53;1.27;;;;;;;18.87;67.86;101372.66;2055798;28;20043;-68
2022/08/23 00:32:14;;;;;;;3.90;1.30;;;;;;;18.86;67.62;101370.88;2054931;28;20122;-68
2022/08/23 00:33:20;;;;;;;5.60;1.40;;;;;;;18.84;68.02;101367.38;2056613;28;20051;-68
2022/08/23 00:34:22;;;;;;;3.25;1.30;;;;;;;18.84;67.58;101370.97;2063131;28;20173;-68
2022/08/23 00:35:24;;;;;;;6.20;1.60;;;;;;;18.84;67.24;101376.41;2063133;28;20043;-68
2022/08/23 00:36:26;;;;;;;3.05;1.20;;;;;;;18.87;66.34;101372.66;2062916;28;21208;-68
2022/08/23 00:37:31;;;;;;;4.13;1.30;;;;;;;18.85;66.98;101372.72;2063049;28;22358;-68
2022/08/23 00:38:33;;;;;;;4.93;1.55;;;;;;;18.85;66.73;101375.44;2054930;28;31212;-68
2022/08/23 00:39:37;;;;;;;6.47;1.70;;;;;;;18.86;66.50;101374.50;2062826;28;20042;-68
2022/08/23 00:40:41;;;;;;;5.25;1.27;;;;;;;18.87;66.45;101375.34;2062771;28;20950;-68
2022/08/23 00:41:45;;;;;;;4.15;1.13;;;;;;;18.84;66.47;101378.22;2054941;28;20140;-68
2022/08/23 00:47:57;;;;;;;2.88;1.10;;;;;;;18.81;66.64;101372.94;2050225;28;20039;-68
2022/08/23 00:49:03;;;;;;;5.15;1.20;;;;;;;18.82;66.68;101374.72;2054908;28;29467;-68
2022/08/23 00:50:43;;;;;;;3.42;1.08;;;;;;;18.80;66.58;101372.03;2054572;28;29581;-68
2022/08/23 00:51:53;;;;;;;4.65;1.38;;;;;;;18.81;65.96;101367.50;2060483;28;20070;-68
2022/08/23 00:53:07;;;;;;;6.05;1.30;;;;;;;18.80;66.34;101371.16;2045948;28;37699;-68
2022/08/23 00:54:10;;;;;;;3.13;1.10;;;;;;;18.78;66.55;101378.50;2042453;28;20064;-68
2022/08/23 00:55:15;;;;;;;3.00;1.25;;;;;;;18.76;66.51;101375.88;2047047;28;27471;-68
2022/08/23 00:56:20;;;;;;;4.97;1.48;;;;;;;18.78;66.53;101373.09;2055274;28;20091;-68
2022/08/23 00:57:22;;;;;;;4.40;1.63;;;;;;;18.77;66.41;101374.94;2054927;28;20051;-68
2022/08/23 00:58:25;;;;;;;3.88;1.40;;;;;;;18.76;66.61;101381.28;2046561;28;23638;-68
2022/08/23 00:59:28;;;;;;;4.57;1.38;;;;;;;18.80;65.50;101376.59;2047537;28;20040;-68
2022/08/23 01:00:31;;;;;;;3.53;1.10;;;;;;;18.78;65.91;101367.66;2062171;28;31786;-68
2022/08/23 01:01:34;;;;;;;5.72;1.20;;;;;;;18.78;66.46;101371.25;2062884;28;20816;-68
2022/08/23 01:02:36;;;;;;;3.05;1.25;;;;;;;18.76;66.62;101375.00;2062123;28;32999;-69
2022/08/23 01:03:45;;;;;;;4.93;1.27;;;;;;;18.76;66.40;101377.72;2062338;28;20043;-68
2022/08/23 01:04:58;;;;;;;4.65;1.42;;;;;;;18.76;66.55;101372.28;2055716;28;23982;-68
2022/08/23 01:06:09;;;;;;;5.00;1.10;;;;;;;18.74;66.20;101383.22;2062030;28;25625;-68
2022/08/23 01:07:53;;;;;;;4.43;1.20;;;;;;;18.72;66.55;101379.69;2062130;28;20117;-68
2022/08/23 01:09:12;;;;;;;3.35;1.30;;;;;;;18.70;66.17;101377.06;2053649;28;22189;-67
2022/08/23 01:10:41;;;;;;;4.07;1.10;;;;;;;18.73;65.87;101378.72;2046179;28;20115;-68
2022/08/23 01:12:09;;;;;;;3.25;0.80;;;;;;;18.73;66.02;101380.56;2056412;28;21739;-69
2022/08/23 01:13:28;;;;;;;6.18;1.33;;;;;;;18.72;65.85;101379.69;2054904;28;24680;-68
2022/08/23 01:14:46;;;;;;;4.68;1.35;;;;;;;18.73;65.88;101378.72;2055045;28;20785;-68
2022/08/23 01:16:00;;;;;;;4.78;1.42;;;;;;;18.77;65.50;101376.75;2047070;28;20032;-68
2022/08/23 01:17:23;;;;;;;4.40;0.70;;;;;;;18.73;65.30;101372.44;2052893;28;20164;-68
2022/08/23 01:18:29;;;;;;;3.40;1.15;;;;;;;18.75;65.09;101374.09;2054467;28;31294;-68
2022/08/23 01:19:43;;;;;;;4.45;1.15;;;;;;;18.74;65.37;101382.34;2050338;28;20944;-68
2022/08/23 01:21:00;;;;;;;3.72;1.00;;;;;;;18.75;65.25;101378.66;2054940;28;20086;-68
2022/08/23 01:22:26;;;;;;;3.47;1.05;;;;;;;18.74;65.14;101376.91;2054845;28;20119;-68
2022/08/23 01:23:57;;;;;;;4.28;1.00;;;;;;;18.76;64.99;101375.88;2056818;28;20051;-68
2022/08/23 01:25:03;;;;;;;11.13;1.27;;;;;;;18.77;65.01;101376.75;2055561;28;20165;-68
2022/08/23 01:26:18;;;;;;;3.00;0.90;;;;;;;18.74;64.82;101377.78;2062865;28;20872;-68
2022/08/23 01:27:26;;;;;;;4.93;1.20;;;;;;;18.73;64.69;101376.00;2061907;28;20102;-68
2022/08/23 01:28:28;;;;;;;2.45;1.02;;;;;;;18.76;64.84;101377.72;2054815;28;20044;-68
2022/08/23 01:29:30;;;;;;;6.85;1.48;;;;;;;18.74;64.49;101375.06;2054994;28;20039;-68
2022/08/23 01:30:37;;;;;;;4.43;1.17;;;;;;;18.75;64.49;101371.38;2062899;28;20043;-68
2022/08/23 01:31:39;;;;;;;4.15;1.02;;;;;;;18.76;64.22;101375.00;2062184;28;20041;-68
2022/08/23 01:32:49;;;;;;;6.55;1.20;;;;;;;18.75;64.34;101375.94;2062522;28;24224;-68
2022/08/23 01:34:13;;;;;;;5.43;1.27;;;;;;;18.74;64.56;101374.19;2055677;28;20066;-68
2022/08/23 01:35:17;;;;;;;3.55;0.90;;;;;;;18.72;64.29;101374.28;2050725;28;23591;-68
2022/08/23 01:36:19;;;;;;;3.72;1.10;;;;;;;18.72;64.85;101378.81;2063945;28;20046;-66
2022/08/23 01:37:23;;;;;;;3.72;1.20;;;;;;;18.69;64.54;101377.13;2063732;28;20265;-68
2022/08/23 01:38:28;;;;;;;3.08;1.08;;;;;;;18.68;64.72;101373.56;2055798;28;20043;-68
2022/08/23 01:39:31;;;;;;;2.53;1.02;;;;;;;18.69;64.60;101372.56;2048541;28;20047;-68
2022/08/23 01:40:37;;;;;;;9.20;1.15;;;;;;;18.67;64.55;101379.06;2048500;28;20032;-68
2022/08/23 01:41:42;;;;;;;5.00;1.30;;;;;;;18.64;65.14;101369.22;2056729;28;20905;-69
2022/08/23 01:42:46;;;;;;;4.00;1.15;;;;;;;18.66;64.42;101378.19;2056100;28;20039;-67
2022/08/23 01:43:49;;;;;;;2.30;0.80;;;;;;;18.63;65.06;101377.44;2056391;28;20179;-67
2022/08/23 01:44:56;;;;;;;6.07;1.08;;;;;;;18.63;64.70;101382.88;2063464;28;20054;-70
2022/08/23 01:46:09;;;;;;;3.47;1.00;;;;;;;18.65;64.67;101373.69;2063999;28;20105;-70
2022/08/23 01:47:11;;;;;;;3.03;1.25;;;;;;;18.64;65.00;101373.78;2062530;28;20047;-70
2022/08/23 01:48:14;;;;;;;3.83;0.98;;;;;;;18.64;64.69;101376.47;2056193;28;20111;-70
2022/08/23 01:49:17;;;;;;;4.07;1.00;;;;;;;18.66;64.53;101374.56;2055907;28;20102;-69
2022/08/23 01:50:19;;;;;;;3.30;1.10;;;;;;;18.66;64.48;101378.19;2047937;28;20172;-70
2022/08/23 01:51:22;;;;;;;2.88;1.20;;;;;;;18.64;64.34;101377.34;2048400;28;20170;-70
2022/08/23 01:52:27;;;;;;;4.00;1.02;;;;;;;18.64;64.62;101376.47;2063601;28;20138;-70
2022/08/23 01:53:29;;;;;;;4.30;1.25;;;;;;;18.65;63.92;101381.84;2063968;28;20043;-70
2022/08/23 01:54:31;;;;;;;3.72;1.13;;;;;;;18.64;64.51;101376.47;2055668;28;20978;-70
2022/08/23 01:55:34;;;;;;;3.00;1.00;;;;;;;18.63;64.05;101372.91;2055675;28;20059;-70
2022/08/23 01:56:37;;;;;;;1.77;0.95;;;;;;;18.64;63.90;101374.63;2064503;28;20109;-69
2022/08/23 01:57:49;;;;;;;2.50;1.17;;;;;;;18.62;64.24;101378.41;2054839;28;20047;-70
2022/08/23 01:58:52;;;;;;;6.10;1.00;;;;;;;18.62;64.35;101381.97;2056302;28;20111;-70
2022/08/23 01:59:56;;;;;;;4.10;1.08;;;;;;;18.61;64.10;101382.94;2050424;28;21206;-70
2022/08/23 02:00:58;;;;;;;4.07;1.10;;;;;;;18.62;63.99;101390.13;2063490;28;20154;-70
2022/08/23 02:02:03;;;;;;;4.40;1.25;;;;;;;18.63;64.16;101378.31;2063312;28;20054;-70
2022/08/23 02:03:07;;;;;;;3.25;0.90;;;;;;;18.62;64.05;101379.25;2063839;28;20157;-70
2022/08/23 02:04:11;;;;;;;4.55;0.82;;;;;;;18.59;64.55;101378.53;2063758;28;20069;-70
2022/08/23 02:05:14;;;;;;;4.15;1.13;;;;;;;18.55;64.05;101380.53;2064057;28;20058;-70
2022/08/23 02:06:21;;;;;;;4.18;0.90;;;;;;;18.55;64.27;101377.81;2064014;28;20051;-70
2022/08/23 02:07:27;;;;;;;4.35;0.98;;;;;;;18.56;64.35;101381.41;2055547;28;20102;-70
2022/08/23 02:09:54;;;;;;;3.88;1.02;;;;;;;18.52;64.37;101383.41;2050765;28;20177;-70
2022/08/23 02:10:57;;;;;;;2.55;1.10;;;;;;;18.49;65.04;101376.28;2048272;28;20131;-70
2022/08/23 02:12:00;;;;;;;3.65;1.10;;;;;;;18.48;64.51;101379.06;2056118;28;20039;-70
2022/08/23 02:13:03;;;;;;;7.40;1.38;;;;;;;18.49;64.72;101383.56;2056027;28;20978;-70
2022/08/23 02:14:13;;;;;;;4.97;1.35;;;;;;;18.47;64.53;101369.19;2056134;28;20932;-69
2022/08/23 02:15:22;;;;;;;6.53;1.13;;;;;;;18.44;64.75;101375.63;2063836;28;20051;-70
2022/08/23 02:16:35;;;;;;;5.28;1.25;;;;;;;18.42;64.75;101382.09;2062606;28;20563;-70
2022/08/23 02:17:38;;;;;;;3.28;1.27;;;;;;;18.38;64.99;101384.06;2064043;28;20090;-69
2022/08/23 02:18:40;;;;;;;4.22;1.27;;;;;;;18.36;65.27;101385.09;2055780;28;22396;-70
2022/08/23 02:19:44;;;;;;;3.42;1.25;;;;;;;18.37;65.03;101378.72;2055771;28;26147;-69
2022/08/23 02:20:49;;;;;;;3.40;1.00;;;;;;;18.34;65.21;101385.19;2063739;28;20043;-70
2022/08/23 02:21:52;;;;;;;5.82;1.10;;;;;;;18.33;65.32;101382.53;2064008;28;20987;-70
2022/08/23 02:22:54;;;;;;;3.65;1.13;;;;;;;18.31;65.46;101385.31;2063595;28;20039;-70
2022/08/23 02:24:05;;;;;;;3.90;1.05;;;;;;;18.28;65.46;101386.34;2056294;28;20039;-70
2022/08/23 02:25:10;;;;;;;2.00;1.00;;;;;;;18.27;65.39;101378.31;2056907;28;20397;-70
2022/08/23 02:26:12;;;;;;;1.83;0.93;;;;;;;18.25;65.63;101381.09;2064094;28;20097;-69
2022/08/23 02:27:17;;;;;;;4.78;1.20;;;;;;;18.22;66.06;101375.81;2063810;28;20039;-70
2022/08/23 02:28:22;;;;;;;3.33;1.00;;;;;;;18.21;65.66;101379.44;2063855;28;20047;-70
2022/08/23 02:29:28;;;;;;;4.05;1.10;;;;;;;18.19;65.72;101378.66;2063467;28;20043;-70
2022/08/23 02:30:31;;;;;;;2.85;1.33;;;;;;;18.19;65.90;101378.66;2055543;28;20144;-70
2022/08/23 02:31:34;;;;;;;4.40;1.45;;;;;;;18.18;65.81;101379.63;2054845;28;20916;-70
2022/08/23 02:32:39;;;;;;;4.43;1.02;;;;;;;18.17;66.15;101385.97;2047753;28;20050;-70
2022/08/23 02:33:41;;;;;;;5.38;1.05;;;;;;;18.16;66.55;101375.19;2048102;28;20164;-69
2022/08/23 02:34:45;;;;;;;2.22;1.02;;;;;;;18.13;66.15;101376.25;2055903;28;20051;-70
2022/08/23 02:35:53;;;;;;;2.05;1.10;;;;;;;18.13;66.34;101385.25;2055817;28;20952;-70
2022/08/23 02:36:55;;;;;;;4.20;1.52;;;;;;;18.12;66.49;101385.31;2055900;28;20031;-69
2022/08/23 02:38:03;;;;;;;5.38;1.20;;;;;;;18.09;66.46;101385.47;2063831;28;21547;-70
2022/08/23 02:39:08;;;;;;;5.05;1.10;;;;;;;18.06;66.34;101381.06;2055387;28;20948;-70
2022/08/23 02:40:10;;;;;;;3.72;1.00;;;;;;;18.05;66.63;101387.47;2047679;28;20060;-70
2022/08/23 02:41:13;;;;;;;2.85;1.05;;;;;;;18.06;66.64;101388.31;2048338;28;20032;-70
2022/08/23 02:42:16;;;;;;;3.63;1.10;;;;;;;18.04;67.07;101393.81;2055771;28;20114;-70
2022/08/23 02:43:18;;;;;;;3.97;0.90;;;;;;;18.01;66.63;101393.94;2056627;28;21042;-70
2022/08/23 02:44:20;;;;;;;5.30;1.63;;;;;;;18.01;66.90;101387.66;2063464;28;20044;-70
2022/08/23 02:45:22;;;;;;;5.63;1.20;;;;;;;17.99;67.06;101397.69;2062804;28;20043;-70
2022/08/23 02:46:24;;;;;;;2.58;1.35;;;;;;;17.99;67.01;101394.97;2055521;28;20265;-70
2022/08/23 02:47:26;;;;;;;2.53;0.90;;;;;;;18.01;66.97;101393.06;2055650;28;20125;-70
2022/08/23 02:48:44;;;;;;;4.30;1.10;;;;;;;18.00;67.07;101394.00;2055397;28;20047;-70
2022/08/23 02:49:46;;;;;;;4.25;1.10;;;;;;;17.99;67.29;101384.16;2055888;28;20904;-69
2022/08/23 02:50:48;;;;;;;3.85;1.25;;;;;;;18.04;66.69;101384.81;2055793;28;20047;-69
2022/08/23 02:51:51;;;;;;;5.13;1.48;;;;;;;18.02;67.04;101384.00;2055963;28;20975;-69
2022/08/23 02:52:54;;;;;;;4.03;1.35;;;;;;;18.02;66.84;101392.13;2055085;28;20035;-69
2022/08/23 02:53:58;;;;;;;8.07;1.17;;;;;;;17.99;67.03;101390.44;2081671;23;20047;-66
2022/08/23 02:55:02;;;;;;;5.32;1.52;;;;;;;17.98;66.71;101382.38;2064350;28;20042;-67
2022/08/23 02:56:05;;;;;;;4.90;1.40;;;;;;;17.95;67.12;101387.97;2054702;28;23152;-68
2022/08/23 02:57:06;;;;;;;3.30;1.15;;;;;;;17.91;67.58;101396.22;2047068;28;31042;-68
2022/08/23 02:58:08;;;;;;;4.57;1.23;;;;;;;17.89;67.16;101387.28;2048160;28;20051;-68
2022/08/23 02:59:12;;;;;;;3.05;1.15;;;;;;;17.91;67.92;101392.66;2048155;28;20044;-69
2022/08/23 03:00:17;;;;;;;3.45;1.10;;;;;;;17.87;67.11;101386.50;2055248;28;20043;-68
2022/08/23 03:01:24;;;;;;;4.22;1.05;;;;;;;17.85;67.88;101393.78;2055556;28;20106;-68
2022/08/23 03:02:27;;;;;;;3.58;1.00;;;;;;;17.82;68.15;101391.19;2055679;28;20035;-68
2022/08/23 03:03:29;;;;;;;5.07;0.88;;;;;;;17.80;67.93;101384.06;2055407;28;20039;-69
2022/08/23 03:04:31;;;;;;;4.80;1.30;;;;;;;17.79;68.34;101387.75;2055788;28;20622;-69
2022/08/23 03:05:33;;;;;;;6.47;1.20;;;;;;;17.75;68.33;101392.44;2055680;28;20027;-69
2022/08/23 03:06:37;;;;;;;7.03;1.10;;;;;;;17.72;68.32;101395.28;2055752;28;20050;-69
2022/08/23 03:07:40;;;;;;;4.47;0.85;;;;;;;17.70;68.30;101395.34;2055367;28;20101;-69
2022/08/23 03:08:45;;;;;;;5.93;1.25;;;;;;;17.69;68.45;101392.69;2064048;28;20051;-69
2022/08/23 03:09:47;;;;;;;2.90;1.00;;;;;;;17.70;68.70;101395.34;2062971;28;20043;-69
2022/08/23 03:10:51;;;;;;;3.50;1.13;;;;;;;17.65;68.73;101391.09;2048210;28;20181;-69
2022/08/23 03:11:53;;;;;;;2.78;1.02;;;;;;;17.59;68.90;101391.38;2055748;28;20848;-69
2022/08/23 03:12:55;;;;;;;2.22;1.20;;;;;;;17.55;69.04;101387.94;2062756;28;20043;-69
2022/08/23 03:13:57;;;;;;;4.22;1.00;;;;;;;17.51;69.19;101400.69;2055045;28;20059;-69
2022/08/23 03:14:59;;;;;;;3.35;1.25;;;;;;;17.47;69.93;101396.38;2047326;28;20131;-69
2022/08/23 03:16:01;;;;;;;3.55;1.30;;;;;;;17.48;70.13;101395.44;2055515;28;20160;-69
2022/08/23 03:17:06;;;;;;;2.78;1.10;;;;;;;17.42;69.64;101394.81;2055381;28;20039;-69
2022/08/23 03:18:09;;;;;;;7.30;1.60;;;;;;;17.42;70.63;101392.97;2055643;28;20050;-69
2022/08/23 03:19:11;;;;;;;4.93;1.38;;;;;;;17.38;69.96;101388.66;2055496;28;20130;-69
2022/08/23 03:20:13;;;;;;;3.95;1.15;;;;;;;17.42;70.25;101390.28;2063517;28;20086;-69
2022/08/23 03:21:20;;;;;;;4.75;1.30;;;;;;;17.41;70.27;101396.66;2063395;28;20093;-69
2022/08/23 03:22:25;;;;;;;3.55;1.13;;;;;;;17.42;69.58;101390.28;2063760;28;20110;-69
2022/08/23 03:23:28;;;;;;;2.97;1.20;;;;;;;17.38;69.82;101390.50;2054361;28;20050;-69
2022/08/23 03:24:30;;;;;;;2.95;1.35;;;;;;;17.40;69.82;101388.59;2049737;28;20060;-69
2022/08/23 03:25:33;;;;;;;6.25;1.45;;;;;;;17.35;69.72;101394.19;2055969;28;20047;-69
2022/08/23 03:26:44;;;;;;;2.83;1.30;;;;;;;17.31;70.17;101389.88;2054701;28;20101;-67
2022/08/23 03:27:50;;;;;;;3.35;1.30;;;;;;;17.31;69.90;101387.16;2056026;28;20098;-69
2022/08/23 03:28:55;;;;;;;3.33;1.20;;;;;;;17.26;70.25;101386.50;2063259;28;20043;-69
2022/08/23 03:30:03;;;;;;;7.22;1.50;;;;;;;17.23;70.54;101386.63;2055106;28;20162;-69
2022/08/23 03:31:07;;;;;;;3.17;1.30;;;;;;;17.21;70.56;101388.50;2047421;28;20838;-69
2022/08/23 03:32:17;;;;;;;3.30;1.00;;;;;;;17.15;70.50;101387.81;2049214;28;21005;-69
2022/08/23 03:33:19;;;;;;;5.45;1.10;;;;;;;17.12;70.74;101393.41;2055236;28;20032;-69
2022/08/23 03:34:23;;;;;;;5.82;1.52;;;;;;;17.13;71.58;101392.44;2055843;28;20165;-69
2022/08/23 03:35:27;;;;;;;3.35;1.38;;;;;;;17.07;71.02;101398.13;2055303;28;20082;-69
2022/08/23 03:36:29;;;;;;;2.47;0.93;;;;;;;17.02;71.53;101396.56;2047442;28;21016;-69
2022/08/23 03:37:32;;;;;;;4.50;1.45;;;;;;;17.01;72.68;101390.25;2048433;28;20051;-69
2022/08/23 03:38:35;;;;;;;4.40;1.33;;;;;;;16.98;71.88;101396.69;2047227;28;20048;-69
2022/08/23 03:39:39;;;;;;;5.50;1.30;;;;;;;16.95;72.06;101394.09;2039829;28;20934;-70
2022/08/23 03:40:45;;;;;;;3.03;1.02;;;;;;;16.90;71.62;101397.94;2055681;28;20925;-69
2022/08/23 03:41:49;;;;;;;4.00;1.15;;;;;;;16.88;72.32;101389.03;2054735;28;20433;-69
2022/08/23 03:42:52;;;;;;;3.10;1.13;;;;;;;16.87;71.89;101388.16;2048519;28;20051;-69
2022/08/23 03:43:57;;;;;;;6.47;1.67;;;;;;;16.88;71.91;101400.72;2055443;28;20043;-69
2022/08/23 03:45:01;;;;;;;5.70;1.50;;;;;;;16.83;72.33;101391.91;2054692;28;20047;-69
2022/08/23 03:46:06;;;;;;;5.13;1.20;;;;;;;16.84;72.00;101399.09;2047479;28;20039;-69
2022/08/23 03:47:11;;;;;;;5.05;1.58;;;;;;;16.80;72.24;101403.72;2063138;28;20043;-69
2022/08/23 03:48:17;;;;;;;2.40;1.17;;;;;;;16.80;72.24;101398.31;2062951;28;20193;-69
2022/08/23 03:49:21;;;;;;;2.92;1.25;;;;;;;16.78;72.56;101399.31;2054869;28;20046;-69
2022/08/23 03:50:29;;;;;;;2.92;1.20;;;;;;;16.78;72.57;101402.91;2054882;28;20105;-69
2022/08/23 03:51:43;;;;;;;2.92;1.40;;;;;;;16.77;72.51;101398.41;2047479;28;20051;-68
2022/08/23 03:52:47;;;;;;;3.80;1.50;;;;;;;16.79;72.55;101401.94;2048322;28;20151;-69
2022/08/23 03:53:50;;;;;;;3.70;1.55;;;;;;;16.75;72.34;101397.59;2063267;28;20038;-69
2022/08/23 03:54:52;;;;;;;3.00;1.52;;;;;;;16.78;72.85;101402.91;2063540;28;20046;-69
2022/08/23 03:55:57;;;;;;;3.03;1.17;;;;;;;16.73;72.71;101399.50;2055302;28;20062;-69
2022/08/23 03:57:04;;;;;;;3.80;1.25;;;;;;;16.71;72.58;101401.38;2062338;28;20039;-69
2022/08/23 03:58:07;;;;;;;6.18;1.17;;;;;;;16.67;73.32;101397.06;2054885;28;20066;-69
2022/08/23 03:59:12;;;;;;;3.95;1.10;;;;;;;16.71;72.73;101395.97;2055013;28;20975;-69
2022/08/23 04:00:15;;;;;;;6.38;1.70;;;;;;;16.77;72.74;101400.25;2062711;28;20903;-69
2022/08/23 04:01:22;;;;;;;5.15;1.83;;;;;;;16.71;72.73;101398.69;2063124;28;20508;-69
2022/08/23 04:02:29;;;;;;;4.40;1.20;;;;;;;16.70;72.70;101396.91;2063360;28;20974;-69
2022/08/23 04:03:30;;;;;;;2.13;1.50;;;;;;;16.67;72.64;101399.75;2063305;28;20065;-69
2022/08/23 04:04:38;;;;;;;3.22;1.35;;;;;;;16.66;73.24;101400.69;2062494;28;20051;-69
2022/08/23 04:05:58;;;;;;;4.25;1.30;;;;;;;16.66;72.99;101400.69;2054956;28;20173;-68
2022/08/23 04:07:00;;;;;;;5.03;1.33;;;;;;;16.66;72.96;101405.22;2063206;28;20046;-69
2022/08/23 04:08:12;;;;;;;3.63;1.65;;;;;;;16.69;73.27;101395.16;2063264;28;20959;-69
2022/08/23 04:09:16;;;;;;;4.43;1.50;;;;;;;16.69;72.51;101408.69;2061341;28;20155;-68
2022/08/23 04:10:19;;;;;;;3.10;1.50;;;;;;;16.66;72.90;101400.69;2055289;28;20158;-69
2022/08/23 04:11:24;;;;;;;5.13;1.60;;;;;;;16.65;73.23;101404.34;2054879;28;20145;-69
2022/08/23 04:12:32;;;;;;;4.70;1.38;;;;;;;16.60;73.00;101401.84;2056656;28;20863;-69
2022/08/23 04:13:35;;;;;;;3.55;1.42;;;;;;;16.58;73.39;101405.53;2062969;28;20046;-69
2022/08/23 04:14:37;;;;;;;2.58;1.27;;;;;;;16.54;73.27;101402.06;2055679;28;20141;-69
2022/08/23 04:15:41;;;;;;;5.03;1.63;;;;;;;16.52;73.83;101409.34;2054528;28;20043;-69
2022/08/23 04:16:44;;;;;;;3.15;1.60;;;;;;;16.48;73.86;101409.56;2055432;28;20450;-69
2022/08/23 04:17:46;;;;;;;4.57;1.20;;;;;;;16.41;73.70;101412.50;2063499;28;20915;-69
2022/08/23 04:18:48;;;;;;;3.78;1.80;;;;;;;16.49;74.49;101414.00;2063106;28;20046;-69
2022/08/23 04:19:52;;;;;;;6.20;1.67;;;;;;;16.44;74.75;101410.59;2055407;28;20047;-69
2022/08/23 04:20:54;;;;;;;5.07;1.65;;;;;;;16.40;74.27;101415.25;2055410;28;20118;-69
2022/08/23 04:21:56;;;;;;;4.30;1.67;;;;;;;16.37;74.44;101418.09;2055109;28;20058;-69
2022/08/23 04:23:01;;;;;;;5.70;1.88;;;;;;;16.50;74.31;101410.38;2063180;28;20035;-69
2022/08/23 04:24:07;;;;;;;3.03;1.50;;;;;;;16.39;73.98;101414.38;2062016;28;20051;-69
2022/08/23 04:25:11;;;;;;;3.53;2.00;;;;;;;16.39;74.22;101421.63;2055232;28;20039;-69
2022/08/23 04:26:27;;;;;;;3.88;1.83;;;;;;;16.34;74.44;101427.19;2063018;28;20047;-68
2022/08/23 04:27:31;;;;;;;4.68;1.63;;;;;;;16.34;74.50;101423.63;2060712;28;20051;-69
2022/08/23 04:28:33;;;;;;;3.55;1.60;;;;;;;16.36;74.86;101425.31;2063217;28;20156;-69
2022/08/23 04:29:37;;;;;;;2.08;1.40;;;;;;;16.36;74.33;101419.91;2054920;28;20050;-69
2022/08/23 04:30:39;;;;;;;3.50;1.60;;;;;;;16.41;74.82;101423.31;2055349;28;20110;-69
2022/08/23 04:31:43;;;;;;;4.53;1.80;;;;;;;16.44;74.26;101426.81;2062254;28;20054;-69
2022/08/23 04:32:46;;;;;;;3.30;1.60;;;;;;;16.44;74.56;101426.81;2055275;28;20047;-69
2022/08/23 04:33:48;;;;;;;3.95;1.65;;;;;;;16.48;74.52;101420.38;2062873;28;20046;-69
2022/08/23 04:34:51;;;;;;;3.72;1.80;;;;;;;16.52;74.12;101419.31;2071078;28;20120;-69
2022/08/23 04:35:54;;;;;;;3.42;1.70;;;;;;;16.58;73.92;101427.16;2071067;28;20042;-69
2022/08/23 04:37:01;;;;;;;6.32;2.10;;;;;;;16.56;74.20;101420.94;2062520;28;20828;-69
2022/08/23 04:38:04;;;;;;;2.95;1.33;;;;;;;16.57;73.54;101423.56;2064059;28;20161;-69
2022/08/23 04:39:21;;;;;;;5.57;1.90;;;;;;;16.63;73.62;101430.56;2061169;28;20137;-69
2022/08/23 04:43:07;;;;;;;4.43;1.95;;;;;;;16.77;73.32;101432.69;2057612;28;20916;-69
2022/08/23 04:44:09;;;;;;;5.20;2.38;;;;;;;16.85;73.40;101435.13;2063201;28;21015;-69
2022/08/23 04:45:11;;;;;;;6.35;1.77;;;;;;;16.94;72.41;101429.31;2062741;28;20093;-69
2022/08/23 04:46:17;;;;;;;4.28;1.60;;;;;;;17.02;72.30;101432.59;2063026;28;20043;-69
2022/08/23 04:47:20;;;;;;;3.55;1.50;;;;;;;17.06;72.01;101436.94;2062868;28;20042;-69
2022/08/23 04:48:23;;;;;;;7.47;1.77;;;;;;;17.09;71.61;101439.50;2055451;28;20888;-69
2022/08/23 04:49:25;;;;;;;2.90;1.50;;;;;;;17.07;71.52;101438.69;2062980;28;20054;-69
2022/08/23 04:50:27;;;;;;;10.32;1.90;;;;;;;17.07;71.71;101437.84;2062429;28;20169;-69
2022/08/23 04:51:52;;;;;;;4.55;1.33;;;;;;;17.02;71.94;101437.13;2057884;28;20075;-69
2022/08/23 04:52:55;;;;;;;3.90;1.45;;;;;;;17.01;72.26;101436.22;2062937;28;20051;-69
2022/08/23 04:53:59;;;;;;;3.10;1.80;;;;;;;16.98;72.14;101439.97;2071125;28;20093;-69
2022/08/23 04:55:16;;;;;;;3.25;1.35;;;;;;;16.95;72.81;101437.38;2068768;28;20170;-69
2022/08/23 04:56:25;;;;;;;5.75;1.92;;;;;;;16.96;72.39;101435.56;2063420;28;20043;-69
2022/08/23 04:57:27;;;;;;;4.93;1.83;;;;;;;16.95;72.32;101439.22;2054748;28;20047;-69
2022/08/23 04:58:32;;;;;;;4.20;1.52;;;;;;;16.96;72.81;101436.44;2055132;28;20170;-69
2022/08/23 04:59:34;;;;;;;4.43;1.88;;;;;;;16.97;72.42;101448.13;2062812;28;20086;-70
2022/08/23 05:00:36;;;;;;;6.97;1.75;;;;;;;16.98;72.74;101439.09;2062671;28;20844;-69
2022/08/23 05:01:38;;;;;;;3.33;1.40;;;;;;;17.02;72.48;101434.44;2063067;28;20055;-69
2022/08/23 05:02:40;;;;;;;6.32;1.98;;;;;;;17.07;72.41;101440.53;2070905;28;20043;-69
2022/08/23 05:03:42;;;;;;;6.43;1.80;;;;;;;17.18;71.85;101449.06;2062688;28;20960;-69
2022/08/23 05:04:44;;;;;;;5.18;1.73;;;;;;;17.27;71.79;101447.81;2071588;28;20133;-69
2022/08/23 05:05:46;;;;;;;5.63;1.50;;;;;;;17.31;71.57;101452.13;2062605;28;20047;-69
2022/08/23 05:06:51;;;;;;;4.72;1.80;;;;;;;17.35;71.45;101442.91;2055230;28;20063;-69
2022/08/23 05:07:56;;;;;;;3.85;1.85;;;;;;;17.52;70.80;101445.78;2062836;28;20921;-69
2022/08/23 05:09:00;;;;;;;5.45;1.77;;;;;;;17.81;69.79;101448.16;2056476;28;20577;-69
2022/08/23 05:10:08;;;;;;;8.15;2.17;;;;;;;18.11;68.45;101443.19;2056314;28;20050;-69
2022/08/23 05:11:11;;;;;;;5.22;1.60;;;;;;;18.54;67.22;101446.59;2057234;28;20058;-70
2022/08/23 05:12:14;;;;;;;6.05;1.60;;;;;;;18.88;64.88;101443.13;2064004;28;20050;-69
2022/08/23 05:13:16;;;;;;;4.35;1.60;;;;;;;19.25;64.25;101438.53;2064189;28;20039;-70
2022/08/23 05:14:19;;;;;;;4.38;1.42;;;;;;;19.40;63.69;101434.16;2072341;28;20042;-69